createdAt,value
2019-06-01T00:00:12.057Z,96.99
2019-06-01T00:02:51.219Z,96.84
2019-06-01T00:05:20.692Z,96.97
2019-06-01T00:08:08.304Z,96.87
2019-06-01T00:10:41.495Z,97.07
2019-06-01T00:16:12.675Z,97.57
2019-06-01T00:18:43.967Z,97.00
2019-06-01T00:21:15.103Z,96.21
2019-06-01T00:23:54.910Z,97.02
2019-06-01T00:26:27.779Z,97.28
2019-06-01T00:28:59.548Z,97.44
2019-06-01T00:31:32.072Z,98.35
2019-06-01T00:34:02.754Z,98.13
2019-06-01T00:36:35.097Z,98.31
2019-06-01T00:39:06.637Z,97.77
2019-06-01T00:41:38.100Z,98.26
2019-06-01T00:44:08.901Z,98.63
2019-06-01T00:46:39.479Z,97.84
2019-06-01T00:49:12.052Z,98.22
2019-06-01T00:51:42.885Z,97.56
2019-06-01T00:54:13.387Z,97.94
2019-06-01T00:56:45.585Z,97.81
2019-06-01T00:59:16.445Z,98.13
2019-06-01T01:01:48.334Z,98.55
2019-06-01T01:04:18.836Z,98.21
2019-06-01T01:06:50.797Z,97.73
2019-06-01T01:09:21.814Z,97.83
2019-06-01T01:11:53.295Z,98.53
2019-06-01T01:14:24.318Z,99.17
2019-06-01T01:16:55.772Z,98.94
2019-06-01T01:19:26.479Z,99.04
2019-06-01T01:21:57.080Z,98.97
2019-06-01T01:24:28.127Z,98.95
2019-06-01T01:27:02.188Z,98.62
2019-06-01T01:29:32.951Z,98.92
2019-06-01T01:32:07.099Z,99.02
2019-06-01T01:34:37.842Z,98.76
2019-06-01T01:37:08.313Z,98.55
2019-06-01T01:39:40.049Z,98.66
2019-06-01T01:42:10.516Z,98.84
2019-06-01T01:44:41.142Z,99.02
2019-06-01T01:47:14.312Z,99.31
2019-06-01T01:49:43.938Z,98.81
2019-06-01T01:52:16.646Z,99.03
2019-06-01T01:58:07.035Z,99.79
2019-06-01T02:00:45.061Z,99.77
2019-06-01T02:03:16.618Z,99.82
2019-06-01T02:05:47.056Z,100.00
2019-06-01T02:08:17.916Z,99.79
2019-06-01T02:10:48.356Z,99.82
2019-06-01T02:13:18.792Z,99.57
2019-06-01T02:15:49.340Z,99.50
2019-06-01T02:18:20.028Z,99.64
2019-06-01T02:20:50.435Z,99.68
2019-06-01T02:23:28.697Z,99.80
2019-06-01T02:26:01.194Z,99.53
2019-06-01T02:28:31.848Z,99.73
2019-06-01T02:31:03.897Z,99.87
2019-06-01T02:33:34.533Z,99.83
2019-06-01T02:36:05.424Z,99.51
2019-06-01T02:38:36.541Z,99.80
2019-06-01T02:41:06.966Z,100.00
2019-06-01T02:43:37.409Z,99.91
2019-06-01T02:46:07.881Z,100.00
2019-06-01T02:48:38.299Z,100.00
2019-06-01T02:51:13.805Z,100.00
2019-06-01T02:53:44.641Z,100.00
2019-06-01T02:56:18.231Z,100.00
2019-06-01T02:58:50.929Z,100.00
2019-06-01T03:01:34.408Z,100.00
2019-06-01T03:04:08.311Z,100.00
2019-06-01T03:06:41.817Z,100.00
2019-06-01T03:09:12.330Z,100.00
2019-06-01T03:11:42.887Z,100.00
2019-06-01T03:14:13.478Z,100.00
2019-06-01T03:16:44.229Z,100.00
2019-06-01T03:19:15.878Z,100.00
2019-06-01T03:21:48.448Z,100.00
2019-06-01T03:24:20.763Z,100.00
2019-06-01T03:26:51.570Z,100.00
2019-06-01T03:29:22.006Z,100.00
2019-06-01T03:32:19.093Z,100.00
2019-06-01T03:34:30.360Z,100.00
2019-06-01T03:37:02.778Z,100.00
2019-06-01T03:39:33.594Z,100.00
2019-06-01T03:42:05.224Z,100.00
2019-06-01T03:44:36.257Z,100.00
2019-06-01T03:47:07.583Z,100.00
2019-06-01T03:49:38.107Z,100.00
2019-06-01T03:52:11.020Z,100.00
2019-06-01T03:54:41.453Z,100.00
2019-06-01T03:57:11.887Z,100.00
2019-06-01T03:59:42.321Z,100.00
2019-06-01T04:02:12.762Z,100.00
2019-06-01T04:04:43.540Z,100.00
2019-06-01T04:07:17.291Z,100.00
2019-06-01T04:09:47.682Z,100.00
2019-06-01T04:12:18.134Z,100.00
2019-06-01T04:14:48.824Z,100.00
2019-06-01T04:17:19.369Z,100.00
2019-06-01T04:19:51.098Z,100.00
2019-06-01T04:22:21.616Z,100.00
2019-06-01T04:24:52.060Z,100.00
2019-06-01T04:27:22.654Z,100.00
2019-06-01T04:29:54.233Z,100.00
2019-06-01T04:32:26.013Z,100.00
2019-06-01T04:34:56.443Z,100.00
2019-06-01T04:37:26.875Z,100.00
2019-06-01T04:39:57.278Z,100.00
2019-06-01T04:42:28.087Z,100.00
2019-06-01T04:44:58.775Z,100.00
2019-06-01T04:47:34.026Z,100.00
2019-06-01T04:50:04.984Z,100.00
2019-06-01T04:52:35.413Z,100.00
2019-06-01T04:55:07.301Z,100.00
2019-06-01T04:57:37.923Z,100.00
2019-06-01T05:00:25.813Z,100.00
2019-06-01T05:03:05.014Z,100.00
2019-06-01T05:05:25.195Z,100.00
2019-06-01T05:07:55.634Z,100.00
2019-06-01T05:10:26.258Z,100.00
2019-06-01T05:12:58.374Z,100.00
2019-06-01T05:15:38.248Z,100.00
2019-06-01T05:18:09.968Z,100.00
2019-06-01T05:20:40.657Z,100.00
2019-06-01T05:23:11.266Z,100.00
2019-06-01T05:25:46.758Z,99.68
2019-06-01T05:28:17.525Z,96.23
2019-06-01T05:30:51.110Z,89.87
2019-06-01T05:33:36.456Z,92.72
2019-06-01T05:35:54.137Z,90.04
2019-06-01T05:38:24.647Z,88.99
2019-06-01T05:40:56.671Z,89.08
2019-06-01T05:43:27.112Z,88.15
2019-06-01T05:45:57.571Z,82.62
2019-06-01T05:48:30.613Z,80.40
2019-06-01T05:51:00.421Z,79.32
2019-06-01T05:53:30.903Z,77.42
2019-06-01T05:56:02.102Z,75.21
2019-06-01T05:58:32.553Z,78.40
2019-06-01T06:01:03.118Z,76.94
2019-06-01T06:03:40.488Z,77.31
2019-06-01T06:06:06.702Z,74.69
2019-06-01T06:09:00.519Z,73.58
2019-06-01T06:11:32.928Z,75.30
2019-06-01T06:14:05.126Z,72.44
2019-06-01T06:16:36.148Z,73.02
2019-06-01T06:19:06.568Z,72.54
2019-06-01T06:21:39.401Z,71.05
2019-06-01T06:24:10.209Z,69.61
2019-06-01T06:26:40.655Z,69.55
2019-06-01T06:29:11.159Z,71.37
2019-06-01T06:31:41.835Z,69.54
2019-06-01T06:34:13.277Z,68.68
2019-06-01T06:36:44.225Z,68.35
2019-06-01T06:39:15.828Z,66.49
2019-06-01T06:41:47.021Z,65.79
2019-06-01T06:44:20.601Z,66.86
2019-06-01T06:46:51.059Z,65.29
2019-06-01T06:49:26.325Z,64.86
2019-06-01T06:51:56.901Z,64.71
2019-06-01T06:54:31.396Z,65.61
2019-06-01T06:57:01.785Z,63.40
2019-06-01T06:59:34.134Z,62.37
2019-06-01T07:02:04.653Z,63.97
2019-06-01T07:04:42.271Z,64.55
2019-06-01T07:07:17.883Z,62.96
2019-06-01T07:09:48.366Z,61.72
2019-06-01T07:12:19.209Z,60.47
2019-06-01T07:14:50.004Z,60.56
2019-06-01T07:17:29.339Z,59.87
2019-06-01T07:20:00.035Z,61.44
2019-06-01T07:22:30.422Z,59.27
2019-06-01T07:25:00.924Z,57.65
2019-06-01T07:27:32.515Z,55.71
2019-06-01T07:30:03.111Z,55.41
2019-06-01T07:32:35.903Z,55.60
2019-06-01T07:35:09.180Z,56.88
2019-06-01T07:37:41.845Z,56.13
2019-06-01T07:40:13.819Z,56.05
2019-06-01T07:42:44.454Z,56.25
2019-06-01T07:45:15.253Z,55.32
2019-06-01T07:47:46.019Z,54.35
2019-06-01T07:50:16.506Z,53.87
2019-06-01T07:52:47.001Z,53.57
2019-06-01T07:55:19.121Z,54.06
2019-06-01T07:57:49.580Z,52.67
2019-06-01T08:00:22.203Z,52.06
2019-06-01T08:02:52.271Z,51.50
2019-06-01T08:05:23.757Z,50.85
2019-06-01T08:07:55.099Z,51.41
2019-06-01T08:10:27.767Z,50.71
2019-06-01T08:13:06.380Z,50.33
2019-06-01T08:15:36.809Z,51.08
2019-06-01T08:18:10.052Z,50.31
2019-06-01T08:20:42.100Z,50.13
2019-06-01T08:23:12.922Z,51.70
2019-06-01T08:25:51.185Z,50.67
2019-06-01T08:28:32.754Z,48.57
2019-06-01T08:31:05.088Z,48.66
2019-06-01T08:33:36.083Z,49.23
2019-06-01T08:36:08.301Z,48.64
2019-06-01T08:38:41.829Z,51.97
2019-06-01T08:41:12.579Z,46.22
2019-06-01T08:43:43.138Z,47.29
2019-06-01T08:46:14.994Z,46.91
2019-06-01T08:48:45.376Z,46.61
2019-06-01T08:51:15.838Z,47.92
2019-06-01T08:54:09.725Z,48.16
2019-06-01T08:56:40.343Z,48.62
2019-06-01T08:59:10.970Z,47.97
2019-06-01T09:01:41.838Z,49.69
2019-06-01T09:04:12.302Z,46.95
2019-06-01T09:06:48.465Z,44.74
2019-06-01T09:09:19.140Z,46.34
2019-06-01T09:11:50.214Z,47.84
2019-06-01T09:14:20.981Z,48.18
2019-06-01T09:16:51.820Z,47.95
2019-06-01T09:19:22.264Z,49.13
2019-06-01T09:21:55.099Z,49.93
2019-06-01T09:24:25.858Z,50.40
2019-06-01T09:26:57.558Z,49.12
2019-06-01T09:29:30.044Z,48.68
2019-06-01T09:32:00.805Z,48.23
2019-06-01T09:34:41.879Z,49.13
2019-06-01T09:37:15.329Z,47.37
2019-06-01T09:39:46.119Z,47.18
2019-06-01T09:42:18.868Z,45.98
2019-06-01T09:44:49.333Z,46.76
2019-06-01T09:47:19.840Z,49.94
2019-06-01T09:50:23.749Z,48.71
2019-06-01T09:52:54.224Z,48.04
2019-06-01T09:55:24.655Z,48.70
2019-06-01T09:57:55.964Z,46.14
2019-06-01T10:00:27.021Z,46.48
2019-06-01T10:03:00.266Z,49.28
2019-06-01T10:05:30.763Z,48.51
2019-06-01T10:08:01.177Z,48.94
2019-06-01T10:10:34.229Z,45.31
2019-06-01T10:13:07.936Z,45.24
2019-06-01T10:15:40.039Z,44.92
2019-06-01T10:18:12.613Z,44.69
2019-06-01T10:20:46.266Z,44.12
2019-06-01T10:23:17.027Z,43.96
2019-06-01T10:25:48.932Z,41.47
2019-06-01T10:28:20.312Z,39.61
2019-06-01T10:30:51.290Z,40.19
2019-06-01T10:33:21.828Z,41.31
2019-06-01T10:35:53.786Z,36.49
2019-06-01T10:38:28.847Z,38.42
2019-06-01T10:41:02.629Z,36.07
2019-06-01T10:43:35.605Z,35.17
2019-06-01T10:46:06.836Z,36.65
2019-06-01T10:48:40.101Z,37.84
2019-06-01T10:51:21.707Z,36.29
2019-06-01T10:53:52.159Z,35.29
2019-06-01T10:56:22.563Z,37.19
2019-06-01T10:59:01.035Z,35.77
2019-06-01T11:01:32.958Z,36.78
2019-06-01T11:04:03.807Z,38.44
2019-06-01T11:06:40.672Z,38.52
2019-06-01T11:09:14.190Z,38.81
2019-06-01T11:11:45.081Z,38.00
2019-06-01T11:14:16.028Z,38.03
2019-06-01T11:16:56.250Z,37.26
2019-06-01T11:19:24.328Z,38.13
2019-06-01T11:21:55.097Z,39.21
2019-06-01T11:24:29.875Z,38.17
2019-06-01T11:27:00.457Z,38.91
2019-06-01T11:29:31.204Z,39.02
2019-06-01T11:32:01.876Z,39.96
2019-06-01T11:34:32.359Z,39.65
2019-06-01T11:37:05.563Z,41.59
2019-06-01T11:39:47.980Z,41.45
2019-06-01T11:42:20.017Z,40.34
2019-06-01T11:44:50.639Z,39.31
2019-06-01T11:47:25.174Z,37.67
2019-06-01T11:49:58.563Z,38.41
2019-06-01T11:52:29.583Z,37.17
2019-06-01T11:55:06.190Z,38.96
2019-06-01T11:57:41.602Z,36.37
2019-06-01T12:00:15.535Z,38.64
2019-06-01T12:02:47.965Z,37.14
2019-06-01T12:05:18.427Z,38.40
2019-06-01T12:07:57.879Z,40.84
2019-06-01T12:10:28.274Z,40.06
2019-06-01T12:12:58.709Z,40.27
2019-06-01T12:15:29.157Z,39.52
2019-06-01T12:18:03.287Z,38.90
2019-06-01T12:20:36.583Z,38.08
2019-06-01T12:23:09.883Z,37.28
2019-06-01T12:25:42.234Z,39.03
2019-06-01T12:28:17.771Z,38.27
2019-06-01T12:30:50.353Z,38.42
2019-06-01T12:33:24.717Z,39.47
2019-06-01T12:35:56.249Z,39.98
2019-06-01T12:38:26.719Z,40.10
2019-06-01T12:41:03.094Z,39.51
2019-06-01T12:43:33.581Z,39.51
2019-06-01T12:49:04.926Z,38.01
2019-06-01T12:51:35.385Z,39.25
2019-06-01T12:54:08.487Z,39.32
2019-06-01T12:56:42.816Z,38.66
2019-06-01T13:02:08.301Z,39.01
2019-06-01T13:04:40.550Z,38.94
2019-06-01T13:07:17.285Z,39.18
2019-06-01T13:09:50.645Z,37.94
2019-06-01T13:12:21.133Z,37.79
2019-06-01T13:15:01.706Z,38.88
2019-06-01T13:17:33.418Z,40.19
2019-06-01T13:20:04.887Z,39.00
2019-06-01T13:22:35.555Z,39.31
2019-06-01T13:25:06.008Z,37.55
2019-06-01T13:27:40.827Z,40.70
2019-06-01T13:30:20.954Z,39.57
2019-06-01T13:32:53.437Z,38.79
2019-06-01T13:35:24.372Z,39.71
2019-06-01T13:38:10.880Z,39.22
2019-06-01T13:40:30.950Z,39.38
2019-06-01T13:43:03.118Z,37.41
2019-06-01T13:45:36.658Z,37.74
2019-06-01T13:48:10.109Z,38.01
2019-06-01T13:50:40.506Z,36.45
2019-06-01T13:53:11.201Z,35.50
2019-06-01T13:55:46.058Z,36.46
2019-06-01T13:58:17.913Z,35.68
2019-06-01T14:00:48.556Z,36.40
2019-06-01T14:03:22.197Z,37.33
2019-06-01T14:06:00.989Z,37.32
2019-06-01T14:08:30.653Z,37.73
2019-06-01T14:11:04.312Z,34.87
2019-06-01T14:13:38.244Z,35.27
2019-06-01T14:16:10.556Z,35.71
2019-06-01T14:18:40.979Z,34.36
2019-06-01T14:21:11.398Z,34.73
2019-06-01T14:23:47.603Z,36.03
2019-06-01T14:26:19.278Z,35.23
2019-06-01T14:28:50.219Z,34.03
2019-06-01T14:31:21.134Z,34.01
2019-06-01T14:33:52.569Z,34.02
2019-06-01T14:36:23.940Z,34.48
2019-06-01T14:38:58.658Z,33.56
2019-06-01T14:41:36.159Z,34.27
2019-06-01T14:44:06.806Z,33.91
2019-06-01T14:46:52.663Z,34.03
2019-06-01T14:49:11.124Z,33.57
2019-06-01T14:51:43.302Z,32.50
2019-06-01T14:54:13.744Z,32.68
2019-06-01T14:56:44.193Z,32.70
2019-06-01T14:59:17.880Z,32.72
2019-06-01T15:01:48.614Z,30.86
2019-06-01T15:04:20.907Z,32.60
2019-06-01T15:06:52.311Z,32.44
2019-06-01T15:09:28.511Z,32.98
2019-06-01T15:12:03.886Z,32.26
2019-06-01T15:14:38.354Z,32.84
2019-06-01T15:17:13.709Z,32.00
2019-06-01T15:19:47.095Z,31.96
2019-06-01T15:22:28.566Z,32.25
2019-06-01T15:25:03.648Z,32.13
2019-06-01T15:27:34.266Z,32.95
2019-06-01T15:30:05.721Z,33.21
2019-06-01T15:32:36.929Z,32.09
2019-06-01T15:35:18.191Z,33.53
2019-06-01T15:37:57.993Z,32.42
2019-06-01T15:40:27.559Z,32.31
2019-06-01T15:43:05.080Z,32.41
2019-06-01T15:46:31.935Z,33.06
2019-06-01T15:49:19.654Z,32.69
2019-06-01T15:51:47.596Z,32.31
2019-06-01T15:54:18.264Z,32.01
2019-06-01T15:56:54.333Z,32.04
2019-06-01T15:59:24.817Z,32.98
2019-06-01T16:01:57.239Z,32.87
2019-06-01T16:04:30.610Z,32.75
2019-06-01T16:07:01.613Z,32.48
2019-06-01T16:09:42.620Z,32.44
2019-06-01T16:12:10.812Z,33.26
2019-06-01T16:14:41.712Z,32.62
2019-06-01T16:17:12.180Z,32.27
2019-06-01T16:19:48.299Z,33.65
2019-06-01T16:22:21.097Z,32.74
2019-06-01T16:24:52.255Z,32.90
2019-06-01T16:27:24.209Z,35.11
2019-06-01T16:29:54.797Z,33.08
2019-06-01T16:32:32.861Z,34.01
2019-06-01T16:35:03.324Z,34.09
2019-06-01T16:37:37.131Z,33.82
2019-06-01T16:40:10.201Z,34.59
2019-06-01T16:42:46.547Z,34.30
2019-06-01T16:45:20.315Z,33.91
2019-06-01T16:47:55.447Z,34.56
2019-06-01T16:50:26.537Z,36.50
2019-06-01T16:53:00.081Z,38.33
2019-06-01T16:55:32.144Z,35.59
2019-06-01T16:58:08.464Z,35.38
2019-06-01T17:00:38.883Z,34.82
2019-06-01T17:03:11.346Z,34.66
2019-06-01T17:05:44.671Z,35.07
2019-06-01T17:08:17.993Z,35.88
2019-06-01T17:10:56.678Z,36.36
2019-06-01T17:13:27.304Z,39.56
2019-06-01T17:16:00.985Z,39.19
2019-06-01T17:18:30.747Z,37.13
2019-06-01T17:21:01.508Z,38.27
2019-06-01T17:23:33.386Z,41.03
2019-06-01T17:26:07.020Z,41.25
2019-06-01T17:28:40.953Z,40.18
2019-06-01T17:31:17.133Z,41.43
2019-06-01T17:33:48.898Z,40.52
2019-06-01T17:36:19.665Z,41.03
2019-06-01T17:38:50.063Z,42.37
2019-06-01T17:41:24.140Z,42.96
2019-06-01T17:43:57.080Z,45.87
2019-06-01T17:46:31.108Z,48.88
2019-06-01T17:49:04.043Z,47.28
2019-06-01T17:51:39.953Z,48.43
2019-06-01T17:54:19.575Z,49.13
2019-06-01T17:56:51.569Z,49.83
2019-06-01T17:59:32.128Z,51.04
2019-06-01T18:02:05.783Z,50.83
2019-06-01T18:04:38.403Z,50.83
2019-06-01T18:07:15.653Z,50.02
2019-06-01T18:09:47.230Z,49.91
2019-06-01T18:12:28.769Z,53.47
2019-06-01T18:15:02.299Z,55.25
2019-06-01T18:17:32.088Z,53.92
2019-06-01T18:20:04.305Z,55.93
2019-06-01T18:22:35.121Z,56.60
2019-06-01T18:25:10.588Z,56.74
2019-06-01T18:27:47.099Z,56.70
2019-06-01T18:30:21.794Z,56.55
2019-06-01T18:33:01.100Z,58.34
2019-06-01T18:35:33.051Z,57.36
2019-06-01T18:38:03.794Z,57.01
2019-06-01T18:40:39.105Z,56.15
2019-06-01T18:43:13.993Z,57.63
2019-06-01T18:45:51.688Z,57.33
2019-06-01T18:48:22.961Z,58.46
2019-06-01T18:50:54.842Z,58.86
2019-06-01T18:53:31.026Z,58.20
2019-06-01T18:56:01.794Z,60.18
2019-06-01T18:58:32.255Z,60.39
2019-06-01T19:01:06.366Z,60.19
2019-06-01T19:03:37.862Z,61.26
2019-06-01T19:06:09.544Z,61.99
2019-06-01T19:08:41.792Z,60.78
2019-06-01T19:11:37.148Z,61.82
2019-06-01T19:14:42.283Z,62.93
2019-06-01T19:17:14.340Z,64.46
2019-06-01T19:19:45.958Z,63.32
2019-06-01T19:22:18.182Z,64.34
2019-06-01T19:24:48.966Z,64.79
2019-06-01T19:27:21.355Z,64.59
2019-06-01T19:29:54.661Z,66.16
2019-06-01T19:32:25.477Z,66.52
2019-06-01T19:35:02.351Z,66.78
2019-06-01T19:37:38.153Z,66.88
2019-06-01T19:40:11.354Z,67.54
2019-06-01T19:42:43.571Z,67.59
2019-06-01T19:45:27.769Z,67.72
2019-06-01T19:47:49.242Z,68.19
2019-06-01T19:50:26.037Z,68.89
2019-06-01T19:52:59.107Z,69.40
2019-06-01T19:55:31.099Z,68.46
2019-06-01T19:58:01.818Z,68.88
2019-06-01T20:00:32.971Z,69.24
2019-06-01T20:03:06.253Z,69.55
2019-06-01T20:05:38.222Z,69.99
2019-06-01T20:08:12.038Z,71.18
2019-06-01T20:10:42.662Z,70.93
2019-06-01T20:13:17.221Z,70.88
2019-06-01T20:15:50.958Z,71.32
2019-06-01T20:18:28.942Z,71.75
2019-06-01T20:21:08.566Z,72.09
2019-06-01T20:23:39.318Z,73.73
2019-06-01T20:26:11.165Z,73.56
2019-06-01T20:28:46.247Z,74.16
2019-06-01T20:31:17.951Z,71.65
2019-06-01T20:33:48.524Z,74.72
2019-06-01T20:36:20.194Z,74.94
2019-06-01T20:38:55.809Z,74.27
2019-06-01T20:41:26.148Z,74.71
2019-06-01T20:43:58.662Z,74.75
2019-06-01T20:46:33.319Z,76.70
2019-06-01T20:49:03.778Z,76.73
2019-06-01T20:51:34.227Z,76.93
2019-06-01T20:54:07.882Z,77.85
2019-06-01T20:56:38.511Z,78.14
2019-06-01T20:59:17.329Z,78.34
2019-06-01T21:01:47.157Z,78.95
2019-06-01T21:04:20.407Z,79.17
2019-06-01T21:06:58.673Z,78.80
2019-06-01T21:09:29.209Z,79.54
2019-06-01T21:12:04.742Z,79.84
2019-06-01T21:14:36.974Z,80.00
2019-06-01T21:17:16.506Z,79.22
2019-06-01T21:19:47.835Z,79.41
2019-06-01T21:22:22.712Z,80.40
2019-06-01T21:24:53.233Z,80.45
2019-06-01T21:27:40.799Z,80.84
2019-06-01T21:30:12.702Z,78.86
2019-06-01T21:32:44.262Z,78.43
2019-06-01T21:35:15.285Z,81.47
2019-06-01T21:37:48.560Z,80.16
2019-06-01T21:40:21.411Z,81.03
2019-06-01T21:43:06.821Z,81.37
2019-06-01T21:45:25.793Z,80.85
2019-06-01T21:47:56.694Z,82.00
2019-06-01T21:50:48.273Z,82.69
2019-06-01T21:53:24.536Z,82.87
2019-06-01T21:55:55.051Z,82.95
2019-06-01T21:58:27.179Z,83.24
2019-06-01T22:00:59.871Z,81.81
2019-06-01T22:03:34.615Z,82.96
2019-06-01T22:06:05.141Z,83.54
2019-06-01T22:08:36.356Z,83.29
2019-06-01T22:11:19.366Z,83.43
2019-06-01T22:13:52.716Z,83.82
2019-06-01T22:16:27.872Z,83.72
2019-06-01T22:19:01.233Z,84.11
2019-06-01T22:21:31.689Z,83.92
2019-06-01T22:24:03.385Z,84.14
2019-06-01T22:26:38.755Z,83.71
2019-06-01T22:29:11.072Z,84.13
2019-06-01T22:31:51.095Z,82.90
2019-06-01T22:34:22.659Z,84.89
2019-06-01T22:36:53.223Z,84.43
2019-06-01T22:39:25.365Z,85.31
2019-06-01T22:41:56.149Z,85.19
2019-06-01T22:44:26.906Z,85.67
2019-06-01T22:46:57.785Z,84.92
2019-06-01T22:49:28.933Z,84.99
2019-06-01T22:52:04.572Z,85.76
2019-06-01T22:54:34.988Z,86.60
2019-06-01T22:57:09.450Z,84.64
2019-06-01T22:59:40.567Z,85.38
2019-06-01T23:02:12.136Z,86.45
2019-06-01T23:04:42.593Z,86.62
2019-06-01T23:07:15.723Z,86.40
2019-06-01T23:09:48.344Z,86.33
2019-06-01T23:12:23.249Z,86.34
2019-06-01T23:14:54.138Z,87.02
2019-06-01T23:17:25.741Z,86.87
2019-06-01T23:20:10.138Z,87.38
2019-06-01T23:22:40.555Z,87.45
2019-06-01T23:25:11.092Z,87.27
2019-06-01T23:27:43.064Z,88.16
2019-06-01T23:30:13.785Z,87.81
2019-06-01T23:32:44.177Z,87.46
2019-06-01T23:35:15.779Z,88.03
2019-06-01T23:37:47.628Z,87.38
2019-06-01T23:40:18.118Z,87.40
2019-06-01T23:42:48.574Z,87.61
2019-06-01T23:45:19.099Z,88.29
2019-06-01T23:47:53.325Z,87.94
2019-06-01T23:50:24.982Z,88.28
2019-06-01T23:53:10.413Z,87.33
2019-06-01T23:55:28.268Z,88.51
2019-06-01T23:57:58.766Z,88.49
